Las Vegas, Nevada
Traffic Map
Current Weather Conditions
Las Vegas, Nevada
Broken Clouds
Broken Clouds
81°
Feels Like: 82°
Wind Chill: 81° Ceiling: 16000
Heat Index: 82° Visibility: 10mi
Dew Point: 63° Wind: 8mph
Humidity: 54% Direction: 180° (S)
Pressure: 30.07in Gusts: 0mph
Raw Report DataKLAS 281356Z 18007KT 10SM SCT100 BKN160 BKN250 27/17 A3007 RMK AO2 SLP157 CB DSNT NE T02720172
Traffic Incident Summary
Active as of:
Severity:
Category:
InformationThere was an issue retrieving the traffic information for this location. Please try a different location or try again shortly.
Advertisements
Track Severe Weather on mobile